sensor_id;sensor_type;location;lat;lon;timestamp;pressure;altitude;pressure_sealevel;temperature;humidity
3796;BME280;1913;50.660;7.834;2023-04-05T00:00:35;97817.69;;;1.42;93.11
3796;BME280;1913;50.660;7.834;2023-04-05T00:03:01;97818.88;;;1.28;95.45
3796;BME280;1913;50.660;7.834;2023-04-05T00:05:27;97821.63;;;1.36;95.24
3796;BME280;1913;50.660;7.834;2023-04-05T00:07:59;97820.72;;;1.47;94.63
3796;BME280;1913;50.660;7.834;2023-04-05T00:10:30;97817.06;;;1.50;92.70
3796;BME280;1913;50.660;7.834;2023-04-05T00:12:59;97819.03;;;1.36;94.08
3796;BME280;1913;50.660;7.834;2023-04-05T00:15:26;97818.94;;;1.48;93.22
3796;BME280;1913;50.660;7.834;2023-04-05T00:17:52;97807.63;;;1.49;92.32
3796;BME280;1913;50.660;7.834;2023-04-05T00:20:20;97817.47;;;1.55;92.20
3796;BME280;1913;50.660;7.834;2023-04-05T00:22:45;97815.84;;;1.54;91.52
3796;BME280;1913;50.660;7.834;2023-04-05T00:25:11;97809.28;;;1.50;90.80
3796;BME280;1913;50.660;7.834;2023-04-05T00:27:38;97807.13;;;1.55;90.64
3796;BME280;1913;50.660;7.834;2023-04-05T00:30:07;97806.56;;;1.51;89.85
3796;BME280;1913;50.660;7.834;2023-04-05T00:32:32;97806.41;;;1.53;89.69
3796;BME280;1913;50.660;7.834;2023-04-05T00:34:58;97800.06;;;1.57;92.05
3796;BME280;1913;50.660;7.834;2023-04-05T00:37:23;97799.50;;;1.53;91.50
3796;BME280;1913;50.660;7.834;2023-04-05T00:39:49;97794.56;;;1.50;90.83
3796;BME280;1913;50.660;7.834;2023-04-05T00:42:14;97802.59;;;1.47;90.98
3796;BME280;1913;50.660;7.834;2023-04-05T00:44:40;97793.75;;;1.50;91.59
3796;BME280;1913;50.660;7.834;2023-04-05T00:47:06;97798.38;;;1.46;91.07
3796;BME280;1913;50.660;7.834;2023-04-05T00:49:33;97797.28;;;1.49;90.56
3796;BME280;1913;50.660;7.834;2023-04-05T00:51:59;97795.09;;;1.44;91.42
3796;BME280;1913;50.660;7.834;2023-04-05T00:54:26;97784.72;;;1.44;91.20
3796;BME280;1913;50.660;7.834;2023-04-05T00:56:56;97786.34;;;1.45;90.73
3796;BME280;1913;50.660;7.834;2023-04-05T00:59:21;97782.44;;;1.51;90.79
3796;BME280;1913;50.660;7.834;2023-04-05T01:02:01;97781.44;;;1.42;90.91
3796;BME280;1913;50.660;7.834;2023-04-05T01:04:32;97779.97;;;1.49;91.08
3796;BME280;1913;50.660;7.834;2023-04-05T01:09:55;97783.03;;;1.33;90.71
3796;BME280;1913;50.660;7.834;2023-04-05T01:12:23;97774.56;;;1.31;91.88
3796;BME280;1913;50.660;7.834;2023-04-05T01:14:52;97774.16;;;1.26;93.33
3796;BME280;1913;50.660;7.834;2023-04-05T01:17:20;97770.88;;;1.24;93.02
3796;BME280;1913;50.660;7.834;2023-04-05T01:19:52;97781.75;;;1.18;92.98
3796;BME280;1913;50.660;7.834;2023-04-05T01:32:04;97772.41;;;1.06;94.94
3796;BME280;1913;50.660;7.834;2023-04-05T01:37:16;97767.81;;;0.88;95.22
3796;BME280;1913;50.660;7.834;2023-04-05T01:39:43;97767.00;;;0.88;96.24
3796;BME280;1913;50.660;7.834;2023-04-05T01:42:12;97769.16;;;0.83;96.34
3796;BME280;1913;50.660;7.834;2023-04-05T01:44:37;97767.38;;;0.83;96.43
3796;BME280;1913;50.660;7.834;2023-04-05T01:47:03;97772.81;;;0.80;96.70
3796;BME280;1913;50.660;7.834;2023-04-05T01:49:28;97774.00;;;0.76;97.10
3796;BME280;1913;50.660;7.834;2023-04-05T01:51:54;97775.91;;;0.74;97.38
3796;BME280;1913;50.660;7.834;2023-04-05T01:54:19;97769.34;;;0.70;98.41
3796;BME280;1913;50.660;7.834;2023-04-05T01:56:45;97766.19;;;0.66;99.22
3796;BME280;1913;50.660;7.834;2023-04-05T01:59:10;97774.31;;;0.62;100.00
3796;BME280;1913;50.660;7.834;2023-04-05T02:01:36;97756.34;;;0.39;100.00
3796;BME280;1913;50.660;7.834;2023-04-05T02:04:01;97761.47;;;0.51;100.00
3796;BME280;1913;50.660;7.834;2023-04-05T02:06:27;97754.94;;;0.35;100.00
3796;BME280;1913;50.660;7.834;2023-04-05T02:08:52;97751.81;;;0.20;100.00
3796;BME280;1913;50.660;7.834;2023-04-05T02:11:18;97755.03;;;0.13;100.00
3796;BME280;1913;50.660;7.834;2023-04-05T02:13:43;97756.56;;;0.15;100.00
3796;BME280;1913;50.660;7.834;2023-04-05T02:16:09;97744.72;;;0.02;100.00
3796;BME280;1913;50.660;7.834;2023-04-05T02:18:35;97753.34;;;-0.09;100.00
3796;BME280;1913;50.660;7.834;2023-04-05T02:21:03;97749.22;;;-0.12;100.00
3796;BME280;1913;50.660;7.834;2023-04-05T02:23:30;97750.63;;;-0.08;100.00
3796;BME280;1913;50.660;7.834;2023-04-05T02:25:56;97745.28;;;-0.27;100.00
3796;BME280;1913;50.660;7.834;2023-04-05T02:28:22;97756.19;;;-0.23;100.00
3796;BME280;1913;50.660;7.834;2023-04-05T02:30:47;97761.38;;;-0.35;100.00
3796;BME280;1913;50.660;7.834;2023-04-05T02:33:12;97753.63;;;-0.35;100.00
3796;BME280;1913;50.660;7.834;2023-04-05T02:35:38;97750.94;;;-0.44;100.00
3796;BME280;1913;50.660;7.834;2023-04-05T02:38:04;97743.91;;;-0.76;100.00
3796;BME280;1913;50.660;7.834;2023-04-05T02:40:30;97740.16;;;-0.83;100.00
3796;BME280;1913;50.660;7.834;2023-04-05T02:42:56;97741.81;;;-0.93;100.00
3796;BME280;1913;50.660;7.834;2023-04-05T02:45:22;97741.22;;;-0.97;100.00
3796;BME280;1913;50.660;7.834;2023-04-05T02:47:47;97738.53;;;-0.95;100.00
3796;BME280;1913;50.660;7.834;2023-04-05T02:50:12;97739.00;;;-1.02;100.00
3796;BME280;1913;50.660;7.834;2023-04-05T02:52:38;97733.38;;;-0.95;100.00
3796;BME280;1913;50.660;7.834;2023-04-05T02:55:06;97737.81;;;-0.86;100.00
3796;BME280;1913;50.660;7.834;2023-04-05T02:57:32;97741.78;;;-0.82;100.00
3796;BME280;1913;50.660;7.834;2023-04-05T02:59:57;97733.00;;;-0.80;100.00
3796;BME280;1913;50.660;7.834;2023-04-05T03:02:23;97737.94;;;-0.77;100.00
3796;BME280;1913;50.660;7.834;2023-04-05T03:04:50;97744.28;;;-0.69;100.00
3796;BME280;1913;50.660;7.834;2023-04-05T03:07:17;97735.72;;;-0.70;100.00
3796;BME280;1913;50.660;7.834;2023-04-05T03:09:44;97740.06;;;-0.82;100.00
3796;BME280;1913;50.660;7.834;2023-04-05T03:12:11;97737.13;;;-0.77;100.00
3796;BME280;1913;50.660;7.834;2023-04-05T03:14:37;97733.50;;;-0.75;100.00
3796;BME280;1913;50.660;7.834;2023-04-05T03:17:03;97733.25;;;-0.83;100.00
3796;BME280;1913;50.660;7.834;2023-04-05T03:19:28;97726.22;;;-0.81;100.00
3796;BME280;1913;50.660;7.834;2023-04-05T03:21:54;97722.56;;;-0.89;100.00
3796;BME280;1913;50.660;7.834;2023-04-05T03:24:20;97735.97;;;-0.95;100.00
3796;BME280;1913;50.660;7.834;2023-04-05T03:26:46;97735.38;;;-0.99;100.00
3796;BME280;1913;50.660;7.834;2023-04-05T03:29:12;97730.22;;;-0.88;100.00
3796;BME280;1913;50.660;7.834;2023-04-05T03:31:38;97730.22;;;-0.88;100.00
3796;BME280;1913;50.660;7.834;2023-04-05T03:34:03;97731.72;;;-0.97;100.00
3796;BME280;1913;50.660;7.834;2023-04-05T03:36:28;97724.47;;;-1.03;100.00
3796;BME280;1913;50.660;7.834;2023-04-05T03:39:08;97727.13;;;-1.04;100.00
3796;BME280;1913;50.660;7.834;2023-04-05T03:41:35;97733.59;;;-1.10;100.00
3796;BME280;1913;50.660;7.834;2023-04-05T03:44:01;97726.09;;;-1.02;100.00
3796;BME280;1913;50.660;7.834;2023-04-05T03:46:26;97720.69;;;-1.10;100.00
3796;BME280;1913;50.660;7.834;2023-04-05T03:48:52;97727.59;;;-1.10;100.00
3796;BME280;1913;50.660;7.834;2023-04-05T03:51:17;97722.09;;;-1.17;100.00
3796;BME280;1913;50.660;7.834;2023-04-05T03:53:43;97720.44;;;-1.07;100.00
3796;BME280;1913;50.660;7.834;2023-04-05T03:56:09;97718.34;;;-1.13;100.00
3796;BME280;1913;50.660;7.834;2023-04-05T03:58:35;97716.38;;;-1.09;100.00
3796;BME280;1913;50.660;7.834;2023-04-05T04:01:01;97725.00;;;-1.10;100.00
3796;BME280;1913;50.660;7.834;2023-04-05T04:03:27;97717.53;;;-1.13;100.00
3796;BME280;1913;50.660;7.834;2023-04-05T04:05:53;97709.31;;;-1.18;100.00
3796;BME280;1913;50.660;7.834;2023-04-05T04:08:19;97717.88;;;-1.18;100.00
3796;BME280;1913;50.660;7.834;2023-04-05T04:10:45;97721.53;;;-1.09;100.00
3796;BME280;1913;50.660;7.834;2023-04-05T04:13:11;97719.03;;;-1.11;100.00
3796;BME280;1913;50.660;7.834;2023-04-05T04:15:36;97720.13;;;-1.13;100.00
3796;BME280;1913;50.660;7.834;2023-04-05T04:18:02;97722.78;;;-1.15;100.00
3796;BME280;1913;50.660;7.834;2023-04-05T04:20:27;97715.28;;;-1.18;100.00
3796;BME280;1913;50.660;7.834;2023-04-05T04:22:53;97718.94;;;-1.21;100.00
3796;BME280;1913;50.660;7.834;2023-04-05T04:25:18;97720.56;;;-1.19;100.00
3796;BME280;1913;50.660;7.834;2023-04-05T04:27:44;97721.97;;;-1.27;100.00
3796;BME280;1913;50.660;7.834;2023-04-05T04:30:14;97726.63;;;-1.32;100.00
3796;BME280;1913;50.660;7.834;2023-04-05T04:32:42;97724.19;;;-1.33;100.00
3796;BME280;1913;50.660;7.834;2023-04-05T04:35:34;97716.91;;;-1.28;100.00
3796;BME280;1913;50.660;7.834;2023-04-05T04:38:04;97720.44;;;-1.29;100.00
3796;BME280;1913;50.660;7.834;2023-04-05T04:40:34;97718.69;;;-1.17;100.00
3796;BME280;1913;50.660;7.834;2023-04-05T04:43:06;97709.53;;;-1.22;100.00
3796;BME280;1913;50.660;7.834;2023-04-05T04:45:34;97717.84;;;-1.29;100.00
3796;BME280;1913;50.660;7.834;2023-04-05T04:48:03;97708.59;;;-1.32;100.00
3796;BME280;1913;50.660;7.834;2023-04-05T04:50:30;97710.47;;;-1.34;100.00
3796;BME280;1913;50.660;7.834;2023-04-05T04:52:58;97714.81;;;-1.34;100.00
3796;BME280;1913;50.660;7.834;2023-04-05T04:55:23;97717.16;;;-1.31;100.00
3796;BME280;1913;50.660;7.834;2023-04-05T04:57:51;97712.81;;;-1.31;100.00
3796;BME280;1913;50.660;7.834;2023-04-05T05:00:17;97711.28;;;-1.33;100.00
3796;BME280;1913;50.660;7.834;2023-04-05T05:02:43;97709.88;;;-1.26;100.00
3796;BME280;1913;50.660;7.834;2023-04-05T05:05:09;97713.19;;;-1.24;100.00
3796;BME280;1913;50.660;7.834;2023-04-05T05:07:37;97708.84;;;-1.24;100.00
3796;BME280;1913;50.660;7.834;2023-04-05T05:10:03;97714.47;;;-1.18;100.00
3796;BME280;1913;50.660;7.834;2023-04-05T05:12:29;97715.06;;;-1.15;100.00
3796;BME280;1913;50.660;7.834;2023-04-05T05:14:56;97716.47;;;-1.11;100.00
3796;BME280;1913;50.660;7.834;2023-04-05T05:17:21;97714.47;;;-1.07;100.00
3796;BME280;1913;50.660;7.834;2023-04-05T05:19:47;97713.66;;;-1.08;100.00
3796;BME280;1913;50.660;7.834;2023-04-05T05:22:13;97715.78;;;-0.90;100.00
3796;BME280;1913;50.660;7.834;2023-04-05T05:24:38;97713.31;;;-0.69;100.00
3796;BME280;1913;50.660;7.834;2023-04-05T05:27:04;97713.97;;;-0.45;100.00
3796;BME280;1913;50.660;7.834;2023-04-05T05:29:30;97709.69;;;-0.23;100.00
3796;BME280;1913;50.660;7.834;2023-04-05T05:31:55;97715.50;;;0.01;100.00
3796;BME280;1913;50.660;7.834;2023-04-05T05:34:21;97713.88;;;0.21;100.00
3796;BME280;1913;50.660;7.834;2023-04-05T05:36:46;97713.06;;;0.41;100.00
3796;BME280;1913;50.660;7.834;2023-04-05T05:39:12;97709.66;;;0.83;100.00
3796;BME280;1913;50.660;7.834;2023-04-05T05:41:37;97711.09;;;0.97;100.00
3796;BME280;1913;50.660;7.834;2023-04-05T05:44:02;97702.56;;;1.15;100.00
3796;BME280;1913;50.660;7.834;2023-04-05T05:46:28;97708.22;;;1.30;100.00
3796;BME280;1913;50.660;7.834;2023-04-05T05:48:53;97705.69;;;1.59;100.00
3796;BME280;1913;50.660;7.834;2023-04-05T05:51:19;97711.03;;;1.77;99.28
3796;BME280;1913;50.660;7.834;2023-04-05T05:53:44;97708.22;;;2.00;95.43
3796;BME280;1913;50.660;7.834;2023-04-05T05:56:11;97708.63;;;2.24;92.36
3796;BME280;1913;50.660;7.834;2023-04-05T05:58:37;97718.03;;;2.45;88.18
3796;BME280;1913;50.660;7.834;2023-04-05T06:01:05;97725.81;;;2.54;85.89
3796;BME280;1913;50.660;7.834;2023-04-05T06:03:31;97723.19;;;2.64;83.95
3796;BME280;1913;50.660;7.834;2023-04-05T06:05:58;97723.31;;;2.72;82.42
3796;BME280;1913;50.660;7.834;2023-04-05T06:08:25;97720.13;;;2.88;82.03
3796;BME280;1913;50.660;7.834;2023-04-05T06:10:54;97714.91;;;2.98;78.82
3796;BME280;1913;50.660;7.834;2023-04-05T06:13:19;97717.31;;;2.72;77.75
3796;BME280;1913;50.660;7.834;2023-04-05T06:15:46;97718.41;;;2.69;77.11
3796;BME280;1913;50.660;7.834;2023-04-05T06:18:13;97719.03;;;2.81;78.67
3796;BME280;1913;50.660;7.834;2023-04-05T06:20:38;97723.16;;;2.83;78.73
3796;BME280;1913;50.660;7.834;2023-04-05T06:23:09;97724.84;;;3.02;74.93
3796;BME280;1913;50.660;7.834;2023-04-05T06:25:35;97720.59;;;3.21;75.52
3796;BME280;1913;50.660;7.834;2023-04-05T06:28:04;97731.81;;;3.49;71.22
3796;BME280;1913;50.660;7.834;2023-04-05T06:30:31;97724.56;;;3.52;68.43
3796;BME280;1913;50.660;7.834;2023-04-05T06:32:57;97725.06;;;3.56;67.46
3796;BME280;1913;50.660;7.834;2023-04-05T06:35:23;97724.28;;;3.73;67.57
3796;BME280;1913;50.660;7.834;2023-04-05T06:37:49;97730.91;;;3.86;66.89
3796;BME280;1913;50.660;7.834;2023-04-05T06:40:15;97721.88;;;4.07;67.14
3796;BME280;1913;50.660;7.834;2023-04-05T06:42:41;97723.41;;;4.00;62.27
3796;BME280;1913;50.660;7.834;2023-04-05T06:45:07;97723.66;;;4.07;62.20
3796;BME280;1913;50.660;7.834;2023-04-05T06:47:37;97724.53;;;3.98;61.36
3796;BME280;1913;50.660;7.834;2023-04-05T06:50:04;97718.72;;;4.40;60.51
3796;BME280;1913;50.660;7.834;2023-04-05T06:52:31;97716.59;;;4.35;59.31
3796;BME280;1913;50.660;7.834;2023-04-05T06:54:57;97725.47;;;4.68;57.89
3796;BME280;1913;50.660;7.834;2023-04-05T06:57:22;97721.13;;;5.03;57.15
3796;BME280;1913;50.660;7.834;2023-04-05T06:59:48;97725.22;;;5.06;56.20
3796;BME280;1913;50.660;7.834;2023-04-05T07:02:13;97721.91;;;5.29;56.80
3796;BME280;1913;50.660;7.834;2023-04-05T07:04:39;97718.13;;;5.58;54.56
3796;BME280;1913;50.660;7.834;2023-04-05T07:07:05;97720.28;;;5.63;53.81
3796;BME280;1913;50.660;7.834;2023-04-05T07:09:31;97722.38;;;5.59;53.24
3796;BME280;1913;50.660;7.834;2023-04-05T07:11:58;97717.97;;;6.10;54.09
3796;BME280;1913;50.660;7.834;2023-04-05T07:14:23;97722.38;;;6.10;52.78
3796;BME280;1913;50.660;7.834;2023-04-05T07:16:50;97720.13;;;6.23;51.91
3796;BME280;1913;50.660;7.834;2023-04-05T07:19:16;97722.88;;;6.54;51.63
3796;BME280;1913;50.660;7.834;2023-04-05T07:21:43;97712.09;;;6.74;49.68
3796;BME280;1913;50.660;7.834;2023-04-05T07:24:08;97709.66;;;6.64;49.54
3796;BME280;1913;50.660;7.834;2023-04-05T07:26:35;97717.16;;;6.91;48.76
3796;BME280;1913;50.660;7.834;2023-04-05T07:29:04;97720.53;;;7.00;49.30
3796;BME280;1913;50.660;7.834;2023-04-05T07:31:31;97717.91;;;7.16;47.45
3796;BME280;1913;50.660;7.834;2023-04-05T07:33:58;97717.72;;;7.26;47.52
3796;BME280;1913;50.660;7.834;2023-04-05T07:36:24;97719.41;;;7.50;48.09
3796;BME280;1913;50.660;7.834;2023-04-05T07:38:52;97717.63;;;7.82;47.86
3796;BME280;1913;50.660;7.834;2023-04-05T07:41:19;97716.22;;;8.02;47.06
3796;BME280;1913;50.660;7.834;2023-04-05T07:43:45;97714.03;;;8.37;45.13
3796;BME280;1913;50.660;7.834;2023-04-05T07:46:10;97713.69;;;8.63;44.95
3796;BME280;1913;50.660;7.834;2023-04-05T07:48:36;97713.94;;;9.06;43.39
3796;BME280;1913;50.660;7.834;2023-04-05T07:51:06;97710.56;;;9.56;42.13
3796;BME280;1913;50.660;7.834;2023-04-05T07:53:33;97706.44;;;9.47;41.65
3796;BME280;1913;50.660;7.834;2023-04-05T07:56:03;97712.34;;;9.86;40.10
3796;BME280;1913;50.660;7.834;2023-04-05T07:58:29;97704.03;;;10.40;39.10
3796;BME280;1913;50.660;7.834;2023-04-05T08:01:02;97703.91;;;10.48;40.41
3796;BME280;1913;50.660;7.834;2023-04-05T08:03:29;97713.19;;;11.28;38.26
3796;BME280;1913;50.660;7.834;2023-04-05T08:05:55;97706.69;;;11.65;35.48
3796;BME280;1913;50.660;7.834;2023-04-05T08:08:21;97707.84;;;11.97;34.47
3796;BME280;1913;50.660;7.834;2023-04-05T08:10:47;97704.31;;;11.36;34.93
3796;BME280;1913;50.660;7.834;2023-04-05T08:13:12;97715.19;;;11.26;34.83
3796;BME280;1913;50.660;7.834;2023-04-05T08:15:39;97703.88;;;11.73;34.79
3796;BME280;1913;50.660;7.834;2023-04-05T08:18:04;97707.03;;;11.97;35.11
3796;BME280;1913;50.660;7.834;2023-04-05T08:20:30;97708.47;;;12.13;33.55
3796;BME280;1913;50.660;7.834;2023-04-05T08:22:56;97708.16;;;12.96;32.02
3796;BME280;1913;50.660;7.834;2023-04-05T08:25:21;97704.88;;;13.13;32.66
3796;BME280;1913;50.660;7.834;2023-04-05T08:27:46;97709.34;;;12.40;33.80
3796;BME280;1913;50.660;7.834;2023-04-05T08:30:12;97706.94;;;12.78;31.62
3796;BME280;1913;50.660;7.834;2023-04-05T08:32:37;97698.34;;;13.43;30.37
3796;BME280;1913;50.660;7.834;2023-04-05T08:35:03;97699.53;;;11.94;31.47
3796;BME280;1913;50.660;7.834;2023-04-05T08:37:33;97696.38;;;12.45;31.51
3796;BME280;1913;50.660;7.834;2023-04-05T08:39:58;97701.16;;;12.02;35.20
3796;BME280;1913;50.660;7.834;2023-04-05T08:42:36;97696.38;;;12.91;31.95
3796;BME280;1913;50.660;7.834;2023-04-05T08:45:08;97696.44;;;13.63;32.03
3796;BME280;1913;50.660;7.834;2023-04-05T08:47:36;97695.50;;;14.27;30.29
3796;BME280;1913;50.660;7.834;2023-04-05T08:50:03;97689.38;;;14.02;29.44
3796;BME280;1913;50.660;7.834;2023-04-05T08:52:30;97690.88;;;13.84;29.65
3796;BME280;1913;50.660;7.834;2023-04-05T08:54:56;97698.41;;;14.51;28.80
3796;BME280;1913;50.660;7.834;2023-04-05T08:57:24;97703.69;;;15.01;30.44
3796;BME280;1913;50.660;7.834;2023-04-05T08:59:52;97697.53;;;13.42;29.46
3796;BME280;1913;50.660;7.834;2023-04-05T09:02:19;97698.00;;;12.66;30.14
3796;BME280;1913;50.660;7.834;2023-04-05T09:04:47;97688.59;;;13.23;30.25
3796;BME280;1913;50.660;7.834;2023-04-05T09:07:13;97691.66;;;13.27;29.93
3796;BME280;1913;50.660;7.834;2023-04-05T09:09:44;97687.41;;;13.32;30.08
3796;BME280;1913;50.660;7.834;2023-04-05T09:12:10;97687.28;;;13.59;30.78
3796;BME280;1913;50.660;7.834;2023-04-05T09:14:37;97686.00;;;14.20;30.57
3796;BME280;1913;50.660;7.834;2023-04-05T09:17:03;97689.41;;;14.27;29.67
3796;BME280;1913;50.660;7.834;2023-04-05T09:19:29;97684.81;;;14.41;28.34
3796;BME280;1913;50.660;7.834;2023-04-05T09:21:58;97681.78;;;14.94;28.39
3796;BME280;1913;50.660;7.834;2023-04-05T09:24:34;97679.13;;;15.74;28.54
3796;BME280;1913;50.660;7.834;2023-04-05T09:27:11;97680.91;;;15.92;28.13
3796;BME280;1913;50.660;7.834;2023-04-05T09:29:39;97674.91;;;17.27;27.25
3796;BME280;1913;50.660;7.834;2023-04-05T09:32:06;97689.06;;;17.56;25.92
3796;BME280;1913;50.660;7.834;2023-04-05T09:34:33;97677.69;;;16.85;26.94
3796;BME280;1913;50.660;7.834;2023-04-05T09:37:00;97687.78;;;16.11;25.82
3796;BME280;1913;50.660;7.834;2023-04-05T09:39:28;97683.88;;;15.84;26.24
3796;BME280;1913;50.660;7.834;2023-04-05T09:42:20;97691.06;;;15.95;26.42
3796;BME280;1913;50.660;7.834;2023-04-05T09:44:51;97677.97;;;16.42;26.28
3796;BME280;1913;50.660;7.834;2023-04-05T09:47:20;97681.38;;;16.72;27.52
3796;BME280;1913;50.660;7.834;2023-04-05T09:49:46;97683.09;;;16.25;26.67
3796;BME280;1913;50.660;7.834;2023-04-05T09:54:55;97680.81;;;16.82;25.32
3796;BME280;1913;50.660;7.834;2023-04-05T09:57:22;97677.41;;;16.51;25.41
3796;BME280;1913;50.660;7.834;2023-04-05T09:59:50;97674.31;;;16.66;25.65
3796;BME280;1913;50.660;7.834;2023-04-05T10:02:16;97679.38;;;16.44;25.58
3796;BME280;1913;50.660;7.834;2023-04-05T10:04:43;97666.91;;;16.03;25.32
3796;BME280;1913;50.660;7.834;2023-04-05T10:07:10;97660.09;;;16.61;25.39
3796;BME280;1913;50.660;7.834;2023-04-05T10:09:38;97661.91;;;15.95;25.04
3796;BME280;1913;50.660;7.834;2023-04-05T10:12:05;97659.84;;;16.50;24.68
3796;BME280;1913;50.660;7.834;2023-04-05T10:14:31;97676.38;;;15.80;25.27
3796;BME280;1913;50.660;7.834;2023-04-05T10:16:58;97661.44;;;15.68;26.96
3796;BME280;1913;50.660;7.834;2023-04-05T10:20:19;97664.13;;;15.98;25.99
3796;BME280;1913;50.660;7.834;2023-04-05T10:28:34;97655.97;;;14.89;26.06
3796;BME280;1913;50.660;7.834;2023-04-05T10:31:14;97648.72;;;16.18;25.55
3796;BME280;1913;50.660;7.834;2023-04-05T10:33:45;97644.84;;;15.91;25.70
3796;BME280;1913;50.660;7.834;2023-04-05T10:41:22;97652.66;;;17.57;22.85
3796;BME280;1913;50.660;7.834;2023-04-05T10:43:48;97652.06;;;17.78;22.82
3796;BME280;1913;50.660;7.834;2023-04-05T10:46:19;97651.63;;;17.98;23.15
3796;BME280;1913;50.660;7.834;2023-04-05T10:51:45;97649.41;;;20.18;22.69
3796;BME280;1913;50.660;7.834;2023-04-05T10:54:11;97644.34;;;20.86;22.06
3796;BME280;1913;50.660;7.834;2023-04-05T10:56:38;97649.84;;;21.11;21.57
3796;BME280;1913;50.660;7.834;2023-04-05T10:59:04;97648.22;;;21.58;19.71
3796;BME280;1913;50.660;7.834;2023-04-05T11:01:31;97636.78;;;21.67;21.28
3796;BME280;1913;50.660;7.834;2023-04-05T11:04:09;97644.06;;;20.82;19.93
3796;BME280;1913;50.660;7.834;2023-04-05T11:06:35;97645.16;;;18.56;21.78
3796;BME280;1913;50.660;7.834;2023-04-05T11:09:17;97637.91;;;17.49;23.09
3796;BME280;1913;50.660;7.834;2023-04-05T11:11:49;97642.16;;;16.74;24.06
3796;BME280;1913;50.660;7.834;2023-04-05T11:16:49;97634.22;;;14.87;27.97
3796;BME280;1913;50.660;7.834;2023-04-05T11:19:19;97624.91;;;14.59;25.46
3796;BME280;1913;50.660;7.834;2023-04-05T11:21:44;97620.16;;;14.87;27.58
3796;BME280;1913;50.660;7.834;2023-04-05T11:24:12;97618.00;;;15.87;27.58
3796;BME280;1913;50.660;7.834;2023-04-05T11:29:06;97612.00;;;18.13;25.52
3796;BME280;1913;50.660;7.834;2023-04-05T11:31:31;97615.00;;;18.17;22.56
3796;BME280;1913;50.660;7.834;2023-04-05T11:34:04;97610.97;;;18.14;22.84
3796;BME280;1913;50.660;7.834;2023-04-05T11:36:42;97614.81;;;17.90;24.08
3796;BME280;1913;50.660;7.834;2023-04-05T11:44:21;97616.13;;;17.76;23.41
3796;BME280;1913;50.660;7.834;2023-04-05T11:46:48;97602.97;;;17.57;23.32
3796;BME280;1913;50.660;7.834;2023-04-05T11:49:14;97600.59;;;17.04;24.40
3796;BME280;1913;50.660;7.834;2023-04-05T11:51:41;97603.88;;;16.17;25.97
3796;BME280;1913;50.660;7.834;2023-04-05T11:54:39;97600.75;;;15.48;24.98
3796;BME280;1913;50.660;7.834;2023-04-05T11:57:20;97599.91;;;14.99;27.27
3796;BME280;1913;50.660;7.834;2023-04-05T11:59:49;97597.78;;;16.16;26.39
3796;BME280;1913;50.660;7.834;2023-04-05T12:02:16;97596.41;;;14.61;26.83
3796;BME280;1913;50.660;7.834;2023-04-05T12:04:42;97591.31;;;12.62;28.92
3796;BME280;1913;50.660;7.834;2023-04-05T12:07:17;97594.00;;;12.15;31.01
3796;BME280;1913;50.660;7.834;2023-04-05T12:10:07;97592.91;;;12.83;31.20
3796;BME280;1913;50.660;7.834;2023-04-05T12:12:41;97600.06;;;12.56;28.64
3796;BME280;1913;50.660;7.834;2023-04-05T12:15:09;97594.63;;;14.30;30.73
3796;BME280;1913;50.660;7.834;2023-04-05T12:20:04;97585.63;;;14.81;27.89
3796;BME280;1913;50.660;7.834;2023-04-05T12:22:30;97582.97;;;15.18;25.92
3796;BME280;1913;50.660;7.834;2023-04-05T12:24:56;97583.28;;;15.10;25.51
3796;BME280;1913;50.660;7.834;2023-04-05T12:27:21;97582.69;;;15.75;27.54
3796;BME280;1913;50.660;7.834;2023-04-05T12:30:11;97580.09;;;16.87;25.18
3796;BME280;1913;50.660;7.834;2023-04-05T12:35:22;97578.09;;;16.71;24.49
3796;BME280;1913;50.660;7.834;2023-04-05T12:37:51;97572.31;;;17.09;24.76
3796;BME280;1913;50.660;7.834;2023-04-05T12:40:21;97566.66;;;16.47;24.39
3796;BME280;1913;50.660;7.834;2023-04-05T12:42:47;97566.22;;;16.38;25.81
3796;BME280;1913;50.660;7.834;2023-04-05T12:45:13;97558.19;;;17.20;25.34
3796;BME280;1913;50.660;7.834;2023-04-05T12:47:56;97550.53;;;16.37;24.15
3796;BME280;1913;50.660;7.834;2023-04-05T12:50:27;97553.34;;;15.28;26.31
3796;BME280;1913;50.660;7.834;2023-04-05T12:53:00;97559.16;;;15.00;26.10
3796;BME280;1913;50.660;7.834;2023-04-05T12:55:29;97562.69;;;14.94;27.29
3796;BME280;1913;50.660;7.834;2023-04-05T12:57:58;97558.75;;;14.16;25.38
3796;BME280;1913;50.660;7.834;2023-04-05T13:00:25;97549.50;;;13.75;27.17
3796;BME280;1913;50.660;7.834;2023-04-05T13:02:53;97548.69;;;12.85;28.00
3796;BME280;1913;50.660;7.834;2023-04-05T13:05:24;97556.69;;;13.16;27.56
3796;BME280;1913;50.660;7.834;2023-04-05T13:07:50;97552.31;;;12.84;28.64
3796;BME280;1913;50.660;7.834;2023-04-05T13:10:17;97546.03;;;12.91;30.36
3796;BME280;1913;50.660;7.834;2023-04-05T13:12:43;97542.66;;;13.16;30.63
3796;BME280;1913;50.660;7.834;2023-04-05T13:15:09;97539.63;;;12.67;29.16
3796;BME280;1913;50.660;7.834;2023-04-05T13:17:35;97536.25;;;12.07;30.03
3796;BME280;1913;50.660;7.834;2023-04-05T13:20:01;97536.44;;;12.39;31.51
3796;BME280;1913;50.660;7.834;2023-04-05T13:22:27;97532.09;;;12.71;31.33
3796;BME280;1913;50.660;7.834;2023-04-05T13:24:52;97529.72;;;12.56;31.47
3796;BME280;1913;50.660;7.834;2023-04-05T13:27:19;97528.63;;;12.77;31.27
3796;BME280;1913;50.660;7.834;2023-04-05T13:29:46;97525.09;;;13.03;29.19
3796;BME280;1913;50.660;7.834;2023-04-05T13:32:11;97522.84;;;13.07;29.30
3796;BME280;1913;50.660;7.834;2023-04-05T13:34:37;97522.81;;;12.49;27.94
3796;BME280;1913;50.660;7.834;2023-04-05T13:37:02;97526.69;;;12.26;29.19
3796;BME280;1913;50.660;7.834;2023-04-05T13:39:27;97514.56;;;12.18;29.92
3796;BME280;1913;50.660;7.834;2023-04-05T13:41:53;97518.41;;;12.09;31.27
3796;BME280;1913;50.660;7.834;2023-04-05T13:44:19;97512.75;;;11.92;31.55
3796;BME280;1913;50.660;7.834;2023-04-05T13:46:46;97514.31;;;12.33;31.41
3796;BME280;1913;50.660;7.834;2023-04-05T13:49:11;97516.91;;;12.66;30.44
3796;BME280;1913;50.660;7.834;2023-04-05T13:51:36;97510.66;;;12.48;31.48
3796;BME280;1913;50.660;7.834;2023-04-05T13:56:41;97512.25;;;12.55;30.04
3796;BME280;1913;50.660;7.834;2023-04-05T13:59:14;97501.69;;;12.55;31.78
3796;BME280;1913;50.660;7.834;2023-04-05T14:01:47;97506.16;;;12.55;30.16
3796;BME280;1913;50.660;7.834;2023-04-05T14:04:14;97499.47;;;12.59;31.26
3796;BME280;1913;50.660;7.834;2023-04-05T14:06:43;97500.72;;;12.56;30.14
3796;BME280;1913;50.660;7.834;2023-04-05T14:09:37;97505.84;;;12.31;30.00
3796;BME280;1913;50.660;7.834;2023-04-05T14:12:02;97498.84;;;12.63;29.98
3796;BME280;1913;50.660;7.834;2023-04-05T14:14:28;97498.88;;;12.57;29.50